FW2491 Weather Reports


Display with metric or nautical units.
time (UTC)temp
F
wind
direction
speed
MPH
gust
MPH
rain 1hr
in
rain 24hr
in
rain mn
in
humidity
%
barometer
mb
20190624170036 82 259 10.0 17.0 0.00 0.00 0.00 52 1013.4
20190624163034 81 242 13.0 26.0 0.00 0.00 0.00 50 1013.7
20190624161605 82 248 10.0 20.0 0.00 0.00 0.00 51 1013.8
20190624154542 81 257 11.0 23.0 0.00 0.00 0.00 52 1013.7
20190624153015 81 237 3.0 13.0 0.00 0.00 0.00 56 1013.7
20190624151527 81 242 9.0 18.0 0.00 0.00 0.00 57 1013.8
20190624150011 80 229 3.0 10.0 0.00 0.00 0.00 57 1013.6
20190624144506 80 223 1.0 11.0 0.00 0.00 0.00 60 1013.7
20190624143003 79 272 7.0 12.0 0.00 0.00 0.00 57 1014.0
20190624141724 78 231 0.0 3.0 0.00 0.00 0.00 61 1014.1
20190624140147 78 197 1.0 7.0 0.00 0.00 0.00 63 1014.2
20190624134748 77 228 1.0 7.0 0.00 0.00 0.00 64 1014.3
20190624133130 76 184 0.0 4.0 0.00 0.00 0.00 65 1014.3
20190624131603 75 188 0.0 2.0 0.00 0.00 0.00 66 1014.2
20190624130045 74 262 0.0 0.0 0.00 0.00 0.00 70 1014.2
20190624124645 72 303 0.0 0.0 0.00 0.00 0.00 72 1014.1
20190624123044 71 303 0.0 0.0 0.00 0.00 0.00 73 1014.0
20190624121543 69 303 0.0 0.0 0.00 0.00 0.00 74 1014.0
20190624120139 68 303 0.0 0.0 0.00 0.00 0.00 74 1014.2
20190624114547 68 303 0.0 0.0 0.00 0.00 0.00 75 1014.0
20190624113111 67 300 0.0 0.0 0.00 0.00 0.00 75 1014.0
20190624111545 67 298 0.0 0.0 0.00 0.00 0.00 74 1013.9
20190624110108 67 294 0.0 0.0 0.00 0.00 0.00 75 1013.6
20190624104544 67 294 0.0 0.0 0.00 0.00 0.00 75 1013.6
20190624103059 67 313 0.0 0.0 0.00 0.00 0.00 74 1013.4
20190624101545 67 313 0.0 0.0 0.00 0.00 0.00 74 1013.4
20190624100046 67 312 0.0 0.0 0.00 0.00 0.00 74 1013.1
20190624094559 68 313 0.0 0.0 0.00 0.00 0.00 75 1013.0
20190624093034 68 312 0.0 0.0 0.00 0.00 0.00 75 1012.9
20190624091547 67 312 0.0 0.0 0.00 0.00 0.00 74 1013.0
20190624090107 67 312 0.0 0.0 0.00 0.00 0.00 75 1013.0
20190624084634 67 312 0.0 2.0 0.00 0.00 0.00 75 1013.2
20190624083050 67 311 1.0 4.0 0.00 0.00 0.00 74 1013.3
20190624080027 67 293 3.0 5.0 0.00 0.00 0.00 74 1013.5
20190624074541 68 327 0.0 0.0 0.00 0.00 0.00 74 1013.3
20190624073035 68 327 0.0 0.0 0.00 0.00 0.00 74 1013.5
20190624071532 68 328 0.0 0.0 0.00 0.00 0.00 74 1013.6
20190624070025 69 327 0.0 0.0 0.00 0.00 0.00 74 1014.3
20190624064512 69 75 0.0 0.0 0.00 0.00 0.00 74 1014.4
20190624063017 69 75 0.0 0.0 0.00 0.00 0.00 74 1014.6
20190624061548 69 75 0.0 0.0 0.00 0.00 0.00 74 1014.6
20190624060019 70 75 0.0 0.0 0.00 0.00 0.00 74 1014.6
20190624054511 70 75 0.0 0.0 0.00 0.00 0.00 73 1014.6
20190624053018 70 75 0.0 0.0 0.00 0.00 0.00 72 1014.6
20190624051505 71 75 0.0 0.0 0.00 0.00 0.00 73 1014.7
20190624050023 71 75 0.0 0.0 0.00 0.00 0.00 73 1014.4
20190624044739 71 75 0.0 0.0 0.00 0.00 0.00 73 1014.6
20190624043128 71 75 0.0 0.0 0.00 0.00 0.00 73 1014.7
20190624041626 71 75 0.0 0.0 0.00 0.00 0.00 73 1014.9
20190624040138 71 77 0.0 0.0 0.00 0.00 0.00 72 1015.1
20190624034622 71 77 0.0 0.0 0.00 0.00 0.00 71 1014.9
20190624033158 71 77 0.0 0.0 0.00 0.00 0.00 71 1015.3
20190624030145 71 82 2.0 4.0 0.00 0.00 0.00 70 1015.3
20190624024659 71 90 2.0 4.0 0.00 0.00 0.00 70 1015.3
20190624023217 71 90 1.0 4.0 0.00 0.00 0.00 70 1015.3
20190624021707 71 126 2.0 3.0 0.00 0.00 0.00 72 1015.0
20190624020223 72 128 0.0 3.0 0.00 0.00 0.00 72 1014.7
20190624014640 72 169 0.0 2.0 0.00 0.00 0.00 72 1014.7
20190624013207 73 169 0.0 2.0 0.00 0.00 0.00 72 1014.6
20190624011629 73 130 0.0 2.0 0.00 0.00 0.00 72 1014.6
20190624010151 74 130 0.0 2.0 0.00 0.00 0.00 71 1014.6
20190624004704 75 130 0.0 3.0 0.00 0.00 0.00 70 1014.4
20190624003139 75 143 2.0 6.0 0.00 0.00 0.00 69 1014.5
20190624001613 76 121 1.0 3.0 0.00 0.00 0.00 68 1014.4
20190624000140 77 119 1.0 2.0 0.00 0.00 0.00 66 1014.4
20190623234639 78 160 1.0 4.0 0.00 0.00 0.00 64 1014.5
20190623233100 80 127 2.0 4.0 0.00 0.00 0.00 61 1014.5
20190623231636 82 153 1.0 5.0 0.00 0.00 0.00 60 1014.4
20190623230155 82 207 3.0 7.0 0.00 0.00 0.00 58 1014.5
20190623224611 82 176 3.0 7.0 0.00 0.00 0.00 57 1014.3
20190623223219 83 267 4.0 8.0 0.00 0.00 0.00 58 1014.4
20190623221605 83 153 4.0 9.0 0.00 0.00 0.00 58 1014.5
20190623220132 83 212 2.0 8.0 0.00 0.00 0.00 57 1014.6
20190623214618 83 207 3.0 12.0 0.00 0.00 0.00 57 1014.5
20190623213142 83 153 4.0 9.0 0.00 0.00 0.00 56 1014.5
20190623211621 83 215 4.0 9.0 0.00 0.00 0.00 58 1014.9
20190623210054 83 163 3.0 8.0 0.00 0.00 0.00 55 1014.7
20190623204615 82 136 2.0 4.0 0.00 0.00 0.00 58 1015.0
20190623203149 80 141 3.0 8.0 0.00 0.00 0.00 60 1015.1
20190623201545 79 62 7.0 13.0 0.00 0.00 0.00 62 1015.5
20190623200057 81 46 10.0 12.0 0.00 0.00 0.00 59 1015.8
20190623194606 78 55 8.0 11.0 0.00 0.00 0.00 62 1016.2
20190623193106 79 53 5.0 7.0 0.00 0.00 0.00 56 1016.3
20190623191603 78 38 3.0 6.0 0.00 0.00 0.00 57 1016.2
20190623190134 77 355 2.0 9.0 0.00 0.00 0.00 56 1016.2
20190623184618 77 304 9.0 18.0 0.00 0.00 0.00 59 1016.3
20190623183119 78 327 12.0 20.0 0.00 0.00 0.00 54 1016.5
20190623181620 76 39 12.0 18.0 0.00 0.00 0.00 62 1016.6
20190623180104 79 44 14.0 23.0 0.00 0.00 0.00 59 1017.0
20190623174600 82 298 13.0 23.0 0.00 0.00 0.00 55 1016.6
20190623173103 82 259 13.0 19.0 0.00 0.00 0.00 55 1016.5
20190623171542 81 313 2.0 12.0 0.00 0.00 0.00 59 1016.7